ΕΜΥ, Εθνική Μετεωρολογική Υπηρεσία - Δελτία Καιρού, Προγνώσεις

ΑΕΡΟΝΑΥΤΙΛΙΑ

GREEK AIRPORTS CODES

LGLR 262050Z 00000KT 8000 FEW010 BKN025 BKN070 05/05 Q1008=

EUROPEAN AIRPORTS CODES

LFPO 262130Z 36010KT 330V040 9999 FEW023 BKN038 05/02 Q1024NOSIG=